Mariner A — 9HVA7 — position and weather

sailwx.info

Track history (hours):
 
Tides and Currents Weather Stations Pressure Air Temp Water Temp Dewpoint Dewpoint Depression Visibility Wind Speed Wind Dir Waves Ship Positions

Mariner A

Last reported at 2014-Oct-07 18:11 UTC. Time now 2014-Oct-23 22:05 UTC.
Position N 34°47' E 034°13'.
Warning: this ship's position is 16 days out of date.

Length 176 m; draft 10.1 m.

Type: Tanker. MMSI: 215817000.

Date/timePositionNaut miles runAvg speedWind from/ knotsBaromVisibWave heightAir tempDewpointWater temp
2014-Oct-07 18:11N 34°47' E 034°13'2111.0
2014-Oct-07 16:17N 34°26' E 034°14'811.4
2014-Oct-07 15:33N 34°18' E 034°14'1111.4
2014-Oct-07 14:33N 34°06' E 034°14'4711.3
2014-Oct-07 10:26N 33°20' E 034°15'1310.7
2014-Oct-07 09:13N 33°07' E 034°15'  
2014-Oct-03 17:04N 32°55' E 034°50'1012.2
2014-Oct-03 16:15N 32°56' E 034°38'44 9.3
2014-Oct-03 11:28N 33°39' E 034°24'  
Track history (hours):
 
Tides and Currents Weather Stations Pressure Air Temp Water Temp Dewpoint Dewpoint Depression Visibility Wind Speed Wind Dir Waves Ship Positions

Mariner A

Last reported at 2014-Oct-07 18:11 UTC. Time now 2014-Oct-23 22:05 UTC.
Position N 34°47' E 034°13'.
Warning: this ship's position is 16 days out of date.

Length 176 m; draft 10.1 m.

Type: Tanker. MMSI: 215817000.

Date/timePositionNaut miles runAvg speedWind from/ knotsBaromVisibWave heightAir tempDewpointWater temp
2014-Oct-07 18:11N 34°47' E 034°13'2111.0
2014-Oct-07 16:17N 34°26' E 034°14'811.4
2014-Oct-07 15:33N 34°18' E 034°14'1111.4
2014-Oct-07 14:33N 34°06' E 034°14'4711.3
2014-Oct-07 10:26N 33°20' E 034°15'1310.7
2014-Oct-07 09:13N 33°07' E 034°15'  
2014-Oct-03 17:04N 32°55' E 034°50'1012.2
2014-Oct-03 16:15N 32°56' E 034°38'44 9.3
2014-Oct-03 11:28N 33°39' E 034°24'  

Dump ship's entire track history